createdAt,value
2022-09-09T00:01:15.092Z,9.60
2022-09-09T00:03:50.284Z,8.02
2022-09-09T00:06:30.972Z,9.45
2022-09-09T00:09:07.947Z,9.25
2022-09-09T00:11:44.675Z,8.82
2022-09-09T00:14:24.788Z,9.05
2022-09-09T00:16:56.735Z,8.15
2022-09-09T00:19:37.258Z,8.98
2022-09-09T00:22:15.962Z,8.02
2022-09-09T00:24:49.511Z,8.45
2022-09-09T00:27:39.247Z,7.25
2022-09-09T00:30:19.392Z,7.72
2022-09-09T00:32:46.783Z,7.32
2022-09-09T00:35:24.673Z,7.70
2022-09-09T00:37:55.377Z,7.32
2022-09-09T00:40:27.678Z,8.20
2022-09-09T00:43:11.695Z,7.93
2022-09-09T00:46:45.703Z,7.35
2022-09-09T00:49:39.787Z,7.88
2022-09-09T00:52:14.770Z,8.57
2022-09-09T00:54:50.847Z,8.00
2022-09-09T00:57:24.356Z,9.90
2022-09-09T01:00:00.763Z,8.15
2022-09-09T01:02:32.453Z,8.50
2022-09-09T01:05:08.153Z,8.05
2022-09-09T01:07:35.161Z,8.50
2022-09-09T01:10:13.114Z,9.50
2022-09-09T01:12:44.503Z,6.80
2022-09-09T01:15:25.503Z,7.88
2022-09-09T01:18:08.554Z,9.20
2022-09-09T01:20:48.662Z,9.80
2022-09-09T01:23:27.979Z,9.27
2022-09-09T01:26:15.534Z,8.27
2022-09-09T01:28:46.344Z,8.82
2022-09-09T01:31:18.741Z,9.27
2022-09-09T01:33:45.625Z,10.73
2022-09-09T01:36:12.113Z,9.60
2022-09-09T01:38:39.031Z,10.70
2022-09-09T01:41:05.797Z,9.02
2022-09-09T01:43:32.581Z,11.32
2022-09-09T01:46:01.941Z,9.13
2022-09-09T01:48:29.043Z,9.75
2022-09-09T01:50:55.782Z,9.05
2022-09-09T01:53:23.450Z,10.32
2022-09-09T01:56:13.125Z,9.80
2022-09-09T01:58:51.588Z,8.82
2022-09-09T02:01:37.298Z,8.60
2022-09-09T02:04:12.869Z,8.63
2022-09-09T02:06:41.703Z,8.88
2022-09-09T02:09:13.023Z,9.07
2022-09-09T02:11:39.861Z,7.82
2022-09-09T02:14:14.124Z,9.95
2022-09-09T02:17:04.388Z,9.00
2022-09-09T02:19:35.351Z,9.88
2022-09-09T02:22:02.925Z,7.60
2022-09-09T02:24:34.098Z,8.85
2022-09-09T02:27:05.287Z,9.38
2022-09-09T02:29:37.154Z,9.75
2022-09-09T02:32:09.025Z,9.15
2022-09-09T02:34:40.588Z,9.43
2022-09-09T02:37:10.524Z,7.85
2022-09-09T02:39:37.188Z,8.43
2022-09-09T02:42:05.472Z,9.52
2022-09-09T02:44:32.271Z,8.82
2022-09-09T02:47:19.168Z,7.03
2022-09-09T02:50:05.080Z,9.23
2022-09-09T02:52:37.997Z,9.23
2022-09-09T02:55:12.924Z,8.80
2022-09-09T02:57:42.240Z,7.85
2022-09-09T03:00:09.412Z,8.90
2022-09-09T03:02:36.068Z,8.55
2022-09-09T03:05:02.651Z,8.02
2022-09-09T03:07:29.157Z,7.70
2022-09-09T03:09:55.830Z,8.93
2022-09-09T03:12:23.215Z,7.75
2022-09-09T03:14:49.773Z,7.90
2022-09-09T03:17:16.447Z,8.57
2022-09-09T03:19:42.968Z,7.20
2022-09-09T03:22:11.492Z,6.97
2022-09-09T03:24:38.149Z,7.78
2022-09-09T03:27:04.714Z,8.10
2022-09-09T03:29:31.279Z,9.13
2022-09-09T03:31:58.034Z,7.47
2022-09-09T03:34:24.621Z,8.10
2022-09-09T03:36:51.464Z,7.75
2022-09-09T03:39:18.093Z,7.80
2022-09-09T03:41:47.121Z,8.27
2022-09-09T03:44:13.750Z,7.50
2022-09-09T03:46:40.451Z,8.55
2022-09-09T03:49:07.171Z,8.05
2022-09-09T03:51:37.585Z,8.18
2022-09-09T03:54:05.982Z,7.68
2022-09-09T03:56:32.769Z,9.15
2022-09-09T03:58:59.399Z,6.47
2022-09-09T04:01:26.050Z,7.97
2022-09-09T04:03:53.540Z,8.00
2022-09-09T04:06:21.996Z,7.72
2022-09-09T04:08:49.730Z,6.93
2022-09-09T04:11:17.544Z,7.93
2022-09-09T04:13:45.356Z,7.32
2022-09-09T04:16:16.238Z,7.93
2022-09-09T04:18:43.703Z,7.25
2022-09-09T04:21:12.993Z,6.70
2022-09-09T04:23:39.972Z,6.43
2022-09-09T04:26:06.691Z,7.03
2022-09-09T04:28:36.493Z,7.50
2022-09-09T04:31:15.207Z,7.57
2022-09-09T04:33:41.756Z,6.40
2022-09-09T04:36:09.142Z,6.30
2022-09-09T04:38:35.997Z,6.47
2022-09-09T04:41:03.095Z,6.88
2022-09-09T04:43:31.640Z,7.43
2022-09-09T04:45:58.798Z,5.78
2022-09-09T04:48:26.149Z,6.68
2022-09-09T04:51:05.606Z,5.97
2022-09-09T04:53:32.902Z,6.13
2022-09-09T04:56:14.047Z,6.95
2022-09-09T04:58:43.838Z,7.05
2022-09-09T05:01:14.309Z,6.45
2022-09-09T05:03:41.237Z,6.95
2022-09-09T05:06:13.188Z,6.55
2022-09-09T05:08:40.983Z,7.90
2022-09-09T05:11:25.133Z,7.57
2022-09-09T05:13:52.449Z,6.05
2022-09-09T05:16:19.824Z,7.53
2022-09-09T05:18:52.864Z,7.03
2022-09-09T05:21:22.288Z,7.60
2022-09-09T05:23:48.964Z,6.95
2022-09-09T05:26:18.304Z,6.38
2022-09-09T05:28:45.543Z,6.53
2022-09-09T05:31:14.231Z,5.93
2022-09-09T05:33:43.841Z,5.80
2022-09-09T05:36:14.204Z,6.15
2022-09-09T05:38:41.631Z,4.82
2022-09-09T05:41:11.143Z,6.00
2022-09-09T05:43:38.189Z,5.45
2022-09-09T05:46:10.328Z,5.93
2022-09-09T05:48:41.518Z,5.55
2022-09-09T05:51:11.661Z,5.25
2022-09-09T05:53:38.693Z,5.85
2022-09-09T05:56:06.560Z,5.15
2022-09-09T05:58:34.328Z,4.85
2022-09-09T06:01:15.275Z,5.68
2022-09-09T06:03:43.517Z,5.32
2022-09-09T06:06:12.905Z,4.15
2022-09-09T06:08:41.980Z,4.65
2022-09-09T06:11:11.623Z,5.15
2022-09-09T06:13:39.751Z,5.13
2022-09-09T06:16:09.023Z,4.57
2022-09-09T06:18:35.748Z,5.03
2022-09-09T06:21:07.512Z,4.68
2022-09-09T06:23:37.794Z,4.45
2022-09-09T06:26:11.563Z,4.60
2022-09-09T06:28:38.716Z,5.07
2022-09-09T06:31:08.484Z,4.28
2022-09-09T06:33:37.453Z,4.22
2022-09-09T06:36:04.952Z,4.57
2022-09-09T06:38:31.524Z,3.70
2022-09-09T06:41:00.205Z,4.80
2022-09-09T06:43:28.744Z,4.45
2022-09-09T06:46:12.889Z,3.70
2022-09-09T06:48:43.896Z,4.30
2022-09-09T06:51:14.429Z,3.58
2022-09-09T06:53:43.051Z,3.35
2022-09-09T06:56:24.925Z,3.42
2022-09-09T06:58:52.917Z,4.18
2022-09-09T07:04:16.126Z,3.60
2022-09-09T07:06:45.144Z,3.60
2022-09-09T07:09:14.206Z,3.78
2022-09-09T07:11:46.468Z,3.78
2022-09-09T07:14:14.846Z,3.80
2022-09-09T07:16:43.435Z,3.25
2022-09-09T07:19:11.449Z,2.72
2022-09-09T07:21:38.007Z,2.55
2022-09-09T07:24:08.192Z,2.83
2022-09-09T07:26:35.276Z,3.28
2022-09-09T07:29:01.840Z,2.97
2022-09-09T07:31:33.796Z,3.47
2022-09-09T07:34:00.986Z,2.67
2022-09-09T07:36:33.512Z,2.58
2022-09-09T07:39:09.930Z,2.88
2022-09-09T07:41:39.673Z,2.78
2022-09-09T07:44:09.053Z,2.15
2022-09-09T07:46:36.928Z,2.58
2022-09-09T07:49:04.534Z,2.35
2022-09-09T07:51:34.308Z,3.15
2022-09-09T07:54:03.864Z,1.70
2022-09-09T07:56:33.552Z,2.25
2022-09-09T07:59:01.958Z,2.33
2022-09-09T08:01:34.137Z,2.25
2022-09-09T08:04:03.547Z,1.75
2022-09-09T08:06:40.171Z,1.90
2022-09-09T08:09:08.325Z,1.58
2022-09-09T08:11:39.051Z,2.42
2022-09-09T08:14:08.327Z,1.92
2022-09-09T08:16:37.433Z,2.17
2022-09-09T08:19:04.712Z,2.05
2022-09-09T08:21:32.628Z,2.30
2022-09-09T08:24:01.105Z,1.90
2022-09-09T08:26:36.364Z,1.98
2022-09-09T08:29:05.323Z,2.08
2022-09-09T08:31:34.384Z,2.30
2022-09-09T08:34:02.545Z,2.20
2022-09-09T08:36:31.029Z,2.08
2022-09-09T08:38:58.770Z,2.28
2022-09-09T08:41:55.839Z,2.88
2022-09-09T08:44:31.872Z,2.70
2022-09-09T08:47:20.012Z,2.85
2022-09-09T08:50:01.360Z,2.45
2022-09-09T08:52:40.078Z,2.47
2022-09-09T08:55:27.336Z,1.92
2022-09-09T08:57:57.634Z,2.47
2022-09-09T09:00:34.401Z,2.88
2022-09-09T09:03:10.139Z,1.80
2022-09-09T09:05:48.472Z,2.25
2022-09-09T09:08:44.247Z,2.13
2022-09-09T09:11:10.893Z,2.53
2022-09-09T09:13:50.810Z,2.33
2022-09-09T09:16:23.000Z,2.08
2022-09-09T09:18:50.343Z,1.77
2022-09-09T09:21:37.336Z,1.75
2022-09-09T09:24:12.830Z,1.90
2022-09-09T09:26:39.367Z,1.80
2022-09-09T09:29:16.072Z,1.90
2022-09-09T09:31:59.826Z,1.60
2022-09-09T09:34:26.465Z,1.65
2022-09-09T09:37:05.172Z,1.50
2022-09-09T09:42:26.258Z,1.70
2022-09-09T09:44:54.219Z,1.73
2022-09-09T09:47:30.269Z,1.70
2022-09-09T09:50:00.271Z,1.38
2022-09-09T09:52:29.434Z,1.70
2022-09-09T09:54:58.161Z,1.10
2022-09-09T09:57:30.254Z,1.63
2022-09-09T10:00:14.601Z,1.33
2022-09-09T10:02:44.212Z,1.30
2022-09-09T10:05:36.055Z,1.50
2022-09-09T10:08:11.391Z,1.50
2022-09-09T10:11:10.579Z,0.88
2022-09-09T10:14:07.906Z,1.20
2022-09-09T10:16:43.458Z,0.70
2022-09-09T10:19:26.684Z,0.80
2022-09-09T10:22:01.264Z,0.60
2022-09-09T10:24:49.788Z,0.80
2022-09-09T10:27:38.429Z,0.60
2022-09-09T10:30:22.230Z,0.63
2022-09-09T10:33:06.662Z,0.68
2022-09-09T10:35:42.604Z,0.40
2022-09-09T10:38:28.899Z,0.43
2022-09-09T10:40:57.318Z,0.98
2022-09-09T10:43:32.759Z,0.60
2022-09-09T10:46:20.879Z,0.52
2022-09-09T10:49:08.727Z,0.55
2022-09-09T10:51:44.264Z,0.52
2022-09-09T10:54:45.281Z,0.77
2022-09-09T10:57:50.709Z,0.50
2022-09-09T11:00:37.280Z,0.63
2022-09-09T11:03:05.223Z,0.50
2022-09-09T11:05:37.552Z,0.63
2022-09-09T11:08:10.811Z,0.63
2022-09-09T11:10:44.403Z,0.80
2022-09-09T11:13:26.959Z,0.90
2022-09-09T11:16:18.147Z,0.68
2022-09-09T11:18:47.316Z,0.70
2022-09-09T11:21:23.369Z,1.10
2022-09-09T11:23:58.069Z,0.50
2022-09-09T11:26:39.205Z,0.85
2022-09-09T11:29:15.620Z,1.00
2022-09-09T11:31:45.480Z,1.13
2022-09-09T11:34:39.888Z,1.13
2022-09-09T11:37:28.584Z,0.80
2022-09-09T11:40:07.224Z,1.10
2022-09-09T11:42:36.199Z,1.40
2022-09-09T11:45:32.573Z,1.02
2022-09-09T11:48:00.749Z,1.10
2022-09-09T11:50:27.280Z,1.05
2022-09-09T11:53:06.617Z,1.55
2022-09-09T11:55:35.592Z,1.25
2022-09-09T11:58:06.869Z,1.10
2022-09-09T12:00:33.933Z,0.90
2022-09-09T12:03:00.543Z,1.25
2022-09-09T12:05:42.217Z,0.80
2022-09-09T12:08:17.037Z,1.10
2022-09-09T12:10:55.173Z,1.05
2022-09-09T12:13:27.620Z,0.95
2022-09-09T12:15:56.295Z,1.08
2022-09-09T12:18:37.619Z,0.95
2022-09-09T12:21:33.015Z,0.98
2022-09-09T12:24:06.981Z,1.50
2022-09-09T12:26:36.325Z,0.90
2022-09-09T12:29:21.400Z,0.90
2022-09-09T12:32:02.309Z,1.05
2022-09-09T12:34:50.493Z,0.70
2022-09-09T12:37:36.619Z,0.93
2022-09-09T12:40:28.510Z,1.02
2022-09-09T12:42:59.820Z,1.00
2022-09-09T12:45:30.343Z,1.00
2022-09-09T12:48:12.996Z,1.15
2022-09-09T12:50:52.593Z,1.35
2022-09-09T12:53:32.716Z,1.55
2022-09-09T12:56:08.874Z,1.38
2022-09-09T12:58:38.269Z,1.20
2022-09-09T13:01:10.227Z,1.42
2022-09-09T13:03:48.153Z,1.30
2022-09-09T13:06:28.050Z,1.20
2022-09-09T13:08:57.025Z,1.00
2022-09-09T13:11:29.309Z,1.10
2022-09-09T13:13:58.153Z,1.05
2022-09-09T13:16:32.788Z,0.90
2022-09-09T13:19:09.771Z,1.13
2022-09-09T13:21:41.356Z,0.90
2022-09-09T13:24:33.079Z,1.08
2022-09-09T13:27:05.697Z,1.85
2022-09-09T13:29:33.467Z,1.25
2022-09-09T13:32:13.624Z,1.10
2022-09-09T13:34:40.703Z,1.10
2022-09-09T13:37:18.566Z,1.75
2022-09-09T13:39:54.071Z,1.58
2022-09-09T13:42:28.132Z,2.40
2022-09-09T13:44:56.521Z,2.38
2022-09-09T13:47:36.826Z,0.88
2022-09-09T13:50:27.416Z,1.80
2022-09-09T13:52:56.913Z,1.13
2022-09-09T13:55:25.328Z,1.50
2022-09-09T13:58:01.155Z,1.63
2022-09-09T14:00:32.589Z,1.42
2022-09-09T14:03:01.472Z,1.40
2022-09-09T14:05:28.740Z,1.30
2022-09-09T14:07:55.438Z,1.48
2022-09-09T14:10:23.169Z,1.00
2022-09-09T14:12:49.811Z,1.20
2022-09-09T14:15:16.992Z,1.10
2022-09-09T14:17:43.985Z,1.40
2022-09-09T14:20:12.832Z,1.13
2022-09-09T14:22:40.150Z,1.48
2022-09-09T14:25:07.289Z,1.88
2022-09-09T14:27:34.097Z,1.80
2022-09-09T14:30:01.719Z,1.45
2022-09-09T14:32:28.524Z,1.48
2022-09-09T14:34:55.106Z,1.88
2022-09-09T14:37:21.968Z,1.77
2022-09-09T14:39:51.232Z,2.55
2022-09-09T14:42:18.395Z,2.00
2022-09-09T14:44:45.113Z,2.03
2022-09-09T14:47:11.790Z,2.25
2022-09-09T14:49:40.599Z,2.22
2022-09-09T14:52:10.235Z,2.00
2022-09-09T14:54:36.824Z,1.63
2022-09-09T14:57:03.421Z,2.28
2022-09-09T14:59:30.023Z,2.20
2022-09-09T15:01:56.980Z,1.90
2022-09-09T15:04:28.255Z,1.58
2022-09-09T15:06:55.335Z,2.08
2022-09-09T15:09:21.952Z,1.98
2022-09-09T15:11:48.567Z,2.30
2022-09-09T15:14:15.114Z,2.03
2022-09-09T15:16:42.215Z,2.42
2022-09-09T15:19:10.116Z,1.80
2022-09-09T15:21:38.085Z,1.70
2022-09-09T15:24:05.447Z,1.52
2022-09-09T15:26:32.133Z,1.40
2022-09-09T15:29:00.047Z,1.45
2022-09-09T15:31:30.118Z,1.40
2022-09-09T15:34:01.635Z,1.90
2022-09-09T15:36:51.245Z,1.77
2022-09-09T15:39:18.963Z,1.38
2022-09-09T15:41:49.517Z,1.50
2022-09-09T15:44:16.624Z,1.40
2022-09-09T15:46:56.654Z,1.50
2022-09-09T15:49:26.434Z,1.45
2022-09-09T15:51:58.707Z,1.75
2022-09-09T15:54:26.774Z,1.48
2022-09-09T15:56:56.908Z,1.73
2022-09-09T15:59:24.467Z,2.30
2022-09-09T16:01:53.860Z,1.90
2022-09-09T16:04:26.645Z,2.13
2022-09-09T16:06:55.482Z,1.80
2022-09-09T16:09:22.637Z,1.77
2022-09-09T16:11:49.317Z,1.50
2022-09-09T16:14:16.706Z,1.52
2022-09-09T16:16:43.707Z,1.80
2022-09-09T16:19:13.407Z,1.40
2022-09-09T16:21:45.465Z,1.40
2022-09-09T16:24:14.473Z,1.27
2022-09-09T16:26:45.537Z,1.55
2022-09-09T16:29:13.395Z,1.50
2022-09-09T16:31:41.413Z,1.20
2022-09-09T16:34:08.887Z,1.35
2022-09-09T16:36:37.644Z,1.23
2022-09-09T16:39:07.056Z,1.17
2022-09-09T16:41:34.428Z,1.35
2022-09-09T16:44:06.583Z,1.25
2022-09-09T16:46:36.996Z,1.27
2022-09-09T16:49:06.267Z,1.13
2022-09-09T16:51:36.395Z,1.40
2022-09-09T16:54:06.968Z,1.73
2022-09-09T16:56:37.710Z,1.33
2022-09-09T16:59:27.415Z,1.25
2022-09-09T17:01:54.447Z,1.52
2022-09-09T17:04:24.995Z,1.75
2022-09-09T17:06:54.232Z,1.50
2022-09-09T17:09:23.346Z,1.25
2022-09-09T17:11:54.236Z,1.25
2022-09-09T17:14:22.396Z,1.10
2022-09-09T17:16:49.501Z,1.55
2022-09-09T17:19:16.584Z,1.42
2022-09-09T17:22:05.928Z,2.70
2022-09-09T17:24:32.520Z,2.30
2022-09-09T17:26:59.044Z,1.75
2022-09-09T17:29:26.167Z,1.23
2022-09-09T17:31:53.016Z,1.55
2022-09-09T17:34:19.544Z,1.30
2022-09-09T17:36:46.364Z,1.17
2022-09-09T17:39:12.981Z,1.77
2022-09-09T17:41:40.647Z,1.50
2022-09-09T17:46:41.839Z,2.05
2022-09-09T17:49:14.380Z,1.35
2022-09-09T17:51:42.513Z,1.38
2022-09-09T17:54:15.587Z,1.40
2022-09-09T17:56:44.544Z,1.70
2022-09-09T17:59:13.191Z,1.20
2022-09-09T18:01:43.267Z,1.50
2022-09-09T18:04:10.654Z,1.25
2022-09-09T18:06:40.365Z,1.40
2022-09-09T18:09:11.977Z,1.35
2022-09-09T18:11:42.950Z,1.70
2022-09-09T18:14:12.826Z,1.27
2022-09-09T18:16:40.632Z,1.40
2022-09-09T18:19:10.189Z,1.33
2022-09-09T18:21:36.753Z,1.58
2022-09-09T18:24:05.904Z,1.33
2022-09-09T18:26:36.173Z,0.95
2022-09-09T18:29:07.217Z,1.33
2022-09-09T18:31:36.147Z,1.30
2022-09-09T18:34:04.292Z,1.33
2022-09-09T18:36:34.153Z,1.27
2022-09-09T18:39:03.356Z,1.50
2022-09-09T18:41:33.009Z,1.70
2022-09-09T18:44:01.897Z,1.30
2022-09-09T18:46:30.236Z,1.50
2022-09-09T18:48:57.405Z,1.48
2022-09-09T18:51:26.738Z,1.67
2022-09-09T18:54:00.106Z,1.40
2022-09-09T18:56:29.400Z,1.58
2022-09-09T18:58:58.904Z,2.03
2022-09-09T19:01:26.383Z,1.60
2022-09-09T19:03:54.249Z,1.92
2022-09-09T19:06:23.763Z,2.20
2022-09-09T19:08:55.229Z,1.77
2022-09-09T19:11:24.132Z,1.73
2022-09-09T19:13:59.847Z,2.20
2022-09-09T19:16:29.899Z,2.03
2022-09-09T19:19:00.972Z,1.92
2022-09-09T19:21:33.385Z,2.08
2022-09-09T19:24:06.406Z,1.85
2022-09-09T19:26:40.323Z,2.63
2022-09-09T19:29:09.992Z,2.90
2022-09-09T19:31:36.788Z,3.05
2022-09-09T19:34:03.895Z,2.67
2022-09-09T19:36:31.479Z,2.85
2022-09-09T19:39:00.887Z,3.35
2022-09-09T19:41:28.500Z,2.30
2022-09-09T19:44:03.553Z,2.72
2022-09-09T19:46:32.431Z,2.17
2022-09-09T19:49:00.883Z,3.13
2022-09-09T19:51:31.871Z,2.90
2022-09-09T19:54:01.881Z,2.80
2022-09-09T19:56:29.434Z,2.40
2022-09-09T19:58:57.351Z,2.30
2022-09-09T20:01:29.683Z,1.90
2022-09-09T20:03:59.651Z,1.80
2022-09-09T20:06:39.098Z,2.05
2022-09-09T20:09:08.109Z,1.77
2022-09-09T20:11:35.177Z,1.90
2022-09-09T20:14:01.912Z,1.92
2022-09-09T20:16:30.567Z,1.75
2022-09-09T20:19:02.420Z,2.05
2022-09-09T20:21:35.176Z,1.75
2022-09-09T20:24:05.788Z,1.90
2022-09-09T20:26:35.044Z,2.03
2022-09-09T20:29:05.344Z,1.95
2022-09-09T20:31:39.907Z,1.27
2022-09-09T20:34:09.891Z,1.95
2022-09-09T20:36:37.447Z,1.77
2022-09-09T20:39:22.571Z,1.65
2022-09-09T20:41:50.180Z,1.70
2022-09-09T20:44:22.720Z,1.55
2022-09-09T20:46:52.512Z,1.98
2022-09-09T20:49:21.745Z,2.00
2022-09-09T20:51:50.323Z,1.65
2022-09-09T20:54:20.547Z,2.40
2022-09-09T20:56:48.207Z,1.73
2022-09-09T20:59:20.484Z,1.80
2022-09-09T21:01:47.708Z,1.42
2022-09-09T21:04:16.183Z,1.30
2022-09-09T21:06:42.853Z,1.70
2022-09-09T21:09:09.601Z,1.90
2022-09-09T21:11:36.408Z,1.70
2022-09-09T21:14:03.989Z,1.90
2022-09-09T21:16:35.799Z,1.70
2022-09-09T21:19:02.379Z,1.83
2022-09-09T21:21:28.939Z,1.80
2022-09-09T21:23:58.099Z,2.15
2022-09-09T21:26:25.049Z,2.17
2022-09-09T21:28:51.609Z,1.73
2022-09-09T21:31:19.362Z,1.70
2022-09-09T21:33:46.193Z,1.90
2022-09-09T21:36:14.224Z,2.00
2022-09-09T21:38:41.497Z,1.90
2022-09-09T21:41:12.889Z,2.00
2022-09-09T21:43:41.724Z,2.00
2022-09-09T21:46:10.635Z,2.08
2022-09-09T21:48:37.552Z,1.70
2022-09-09T21:51:07.045Z,1.70
2022-09-09T21:53:34.122Z,1.70
2022-09-09T21:56:10.325Z,2.13
2022-09-09T21:58:37.933Z,1.77
2022-09-09T22:01:16.338Z,1.85
2022-09-09T22:03:44.557Z,1.77
2022-09-09T22:06:15.159Z,2.08
2022-09-09T22:08:42.624Z,2.20
2022-09-09T22:11:15.661Z,2.17
2022-09-09T22:13:43.018Z,1.67
2022-09-09T22:16:13.750Z,1.77
2022-09-09T22:18:41.518Z,2.00
2022-09-09T22:21:14.641Z,2.05
2022-09-09T22:23:41.222Z,1.80
2022-09-09T22:26:08.303Z,2.10
2022-09-09T22:28:35.450Z,1.90
2022-09-09T22:31:02.132Z,1.77
2022-09-09T22:33:29.060Z,1.88
2022-09-09T22:35:55.793Z,1.90
2022-09-09T22:38:22.776Z,1.95
2022-09-09T22:40:49.708Z,1.52
2022-09-09T22:43:21.442Z,1.85
2022-09-09T22:45:48.795Z,1.77
2022-09-09T22:48:15.792Z,1.80
2022-09-09T22:50:42.840Z,1.98
2022-09-09T22:53:13.317Z,2.35
2022-09-09T22:55:40.125Z,1.85
2022-09-09T22:58:06.666Z,2.45
2022-09-09T23:00:33.217Z,1.90
2022-09-09T23:02:59.825Z,2.35
2022-09-09T23:05:27.465Z,1.60
2022-09-09T23:07:56.007Z,1.80
2022-09-09T23:10:22.578Z,1.73
2022-09-09T23:12:49.592Z,1.67
2022-09-09T23:15:17.222Z,2.10
2022-09-09T23:17:44.170Z,1.60
2022-09-09T23:20:11.801Z,2.03
2022-09-09T23:22:40.366Z,1.63
2022-09-09T23:25:07.315Z,2.00
2022-09-09T23:27:34.477Z,1.70
2022-09-09T23:30:01.420Z,1.67
2022-09-09T23:32:28.089Z,1.80
2022-09-09T23:34:54.696Z,1.65
2022-09-09T23:37:21.542Z,1.70
2022-09-09T23:39:48.171Z,1.70
2022-09-09T23:42:14.856Z,1.75
2022-09-09T23:44:41.992Z,1.48
2022-09-09T23:47:09.457Z,2.17
2022-09-09T23:49:39.852Z,2.13
2022-09-09T23:52:07.048Z,1.90
2022-09-09T23:54:34.866Z,1.80
2022-09-09T23:57:02.889Z,1.70
2022-09-09T23:59:30.674Z,1.50
